Huvudsida
METAR-TAF:

METAR-TAF

Flygplatser :

Calvi, Frankrike

latitud: 42-32N, longitud: 008-48E, höjd: 64 m

Aktuellt väderrapport

Denna rapport gjordes för 42 minuter sedan, klockan 18:00 UTC
Vind 5 kt från syd/sydväst
Temperatur 9°C
Fuktighet 66%
Tryck 1019 hPa
Sikt 10 km eller mer
Inga moln under 1 500 m eller inga cumulonimbus

METAR: LFKC 281800Z AUTO 21005KT CAVOK 09/03 Q1019 NOSIG

Tid: 19:42 (18:42 UTC)

Väderprognos

Denna rapport gjordes för 4 timmar och 42 minuter sedan, klockan 14:00 UTC
Prognos gäller från 28 kl. 15 UTC till 29 kl. 15 UTC
Vind 8 kt från nord/nordväst
Sikt 10 km eller mer
Inga moln under 1 500 m eller inga cumulonimbus
Blir
från 28 kl. 17 UTC till 28 kl. 19 UTC
Vind 5 kt från syd
Blir
från 29 kl. 09 UTC till 29 kl. 10 UTC
Vind 8 kt från nord

TAF: LFKC 281400Z 2815/2915 34008KT CAVOK TX17/2912Z TN05/2905Z BECMG 2817/2819 17005KT BECMG 2909/2910 35008KT

Aktuella väderrapporter och prognoser från 4000 flygplatser (METAR- och TAF-rapporter).

De tillgängliga stationerna syns som gula och röda prickar på kartan.

För musen över prickarna för att se namnen på stationerna.

Klicka sedan för att få väderrapporter och prognoser.

För att ändra kartan: Klicka på de gröna knapparna med ett svart kors på för att zooma in; den gröna knappen med ett streck på för att zooma ut; eller på de gröna pilarna för angränsande kartor.


METAR-TAF: